PWSweather.com
Personal Weather Stations
Station Observations
SEVANL01
SevillaES 41004

SevillaES 41004

Lat: 37.383633, Lon: -5.985787

Elevation: 19.685

Station Type: Davis Vantage Pro2

Latest ConditionsUpdated 4:20:01 PM GMT+01:01 Monday, Apr 27, 2015
Currently Today's Max Today's Min Today's Average
Temperature 70.2°F21.2°C 70.2°F21.2°C 57.0°F13.9°C 62.0°F16.7°C
Dew Point 52.7°F11.5°C 55.2°F12.9°C 49.7°F9.8°C 52.8°F11.6°C
Winds 2.0 mph W3.2 kmh W 4.0 mph SW6.4 kmh SW - 1.7 mph 2.7 kmh
Wind Gusts 15.0 mph24.1 kmh 15.0 mph24.1 kmh - -
Humidity 54% 85% 53% 73%
Pressure 30.01 in1016.3 mb 30.04 in1017.3 mb 29.96 in1014.6 mb -
Hour Temp Dew Point Humidity Winds Wind Gusts Pressure Precip Precip Rate Daily Precip Total
04:20 PM 70.2°F21.2°C 52.7°F11.5°C 54% 2.0 mph W3.2 kmh W 15.0 mph24.1 kmh 30.01 in1016.3 mb 0.00 in0.0 mm 0.00 in0.0 mm 0.00 in0.0 mm
04:00 PM 69.1°F20.6°C 51.7°F10.9°C 54% 3.0 mph SW4.8 kmh SW 12.0 mph19.3 kmh 30.01 in1016.3 mb 0.00 in0.0 mm 0.00 in0.0 mm 0.00 in0.0 mm
03:40 PM 68.5°F20.3°C 51.7°F10.9°C 55% 2.0 mph SW3.2 kmh SW 13.0 mph20.9 kmh 30.02 in1016.6 mb 0.00 in0.0 mm 0.00 in0.0 mm 0.00 in0.0 mm
03:20 PM 68.5°F20.3°C 52.2°F11.2°C 56% 2.0 mph SW3.2 kmh SW 12.0 mph19.3 kmh 30.03 in1016.9 mb 0.00 in0.0 mm 0.00 in0.0 mm 0.00 in0.0 mm
03:00 PM 68.5°F20.3°C 50.7°F10.4°C 53% 2.0 mph SW3.2 kmh SW 15.0 mph24.1 kmh 30.03 in1016.9 mb 0.00 in0.0 mm 0.00 in0.0 mm 0.00 in0.0 mm
02:40 PM 68.5°F20.3°C 50.7°F10.4°C 53% 4.0 mph SW6.4 kmh SW 13.0 mph20.9 kmh 30.03 in1016.9 mb 0.00 in0.0 mm 0.00 in0.0 mm 0.00 in0.0 mm
02:20 PM 68.4°F20.2°C 52.5°F11.4°C 57% 3.0 mph SW4.8 kmh SW 9.0 mph14.5 kmh 30.03 in1016.9 mb 0.00 in0.0 mm 0.00 in0.0 mm 0.00 in0.0 mm
02:00 PM 67.8°F19.9°C 51.1°F10.6°C 55% 2.0 mph WSW3.2 kmh WSW 9.0 mph14.5 kmh 30.03 in1016.9 mb 0.00 in0.0 mm 0.00 in0.0 mm 0.00 in0.0 mm
01:40 PM 67.6°F19.8°C 51.9°F11.1°C 57% 2.0 mph WSW3.2 kmh WSW 11.0 mph17.7 kmh 30.04 in1017.3 mb 0.00 in0.0 mm 0.00 in0.0 mm 0.00 in0.0 mm
01:20 PM 67.3°F19.6°C 51.5°F10.8°C 57% 2.0 mph SW3.2 kmh SW 8.0 mph12.9 kmh 30.04 in1017.3 mb 0.00 in0.0 mm 0.00 in0.0 mm 0.00 in0.0 mm
01:00 PM 67.5°F19.7°C 50.7°F10.4°C 55% 1.0 mph WSW1.6 kmh WSW 8.0 mph12.9 kmh 30.03 in1016.9 mb 0.00 in0.0 mm 0.00 in0.0 mm 0.00 in0.0 mm
12:40 PM 67.5°F19.7°C 49.7°F9.8°C 53% 2.0 mph SW3.2 kmh SW 15.0 mph24.1 kmh 30.04 in1017.3 mb 0.00 in0.0 mm 0.00 in0.0 mm 0.00 in0.0 mm
12:20 PM 66.4°F19.1°C 49.7°F9.8°C 55% 3.0 mph WSW4.8 kmh WSW 13.0 mph20.9 kmh 30.04 in1017.3 mb 0.00 in0.0 mm 0.00 in0.0 mm 0.00 in0.0 mm
12:00 PM 65.8°F18.8°C 52.5°F11.4°C 62% 2.0 mph SW3.2 kmh SW 11.0 mph17.7 kmh 30.04 in1017.3 mb 0.00 in0.0 mm 0.00 in0.0 mm 0.00 in0.0 mm
11:40 AM 65.5°F18.6°C 52.5°F11.4°C 63% 3.0 mph WSW4.8 kmh WSW 10.0 mph16.1 kmh 30.04 in1017.3 mb 0.00 in0.0 mm 0.00 in0.0 mm 0.00 in0.0 mm
11:20 AM 64.8°F18.2°C 54.3°F12.4°C 69% 2.0 mph WSW3.2 kmh WSW 9.0 mph14.5 kmh 30.04 in1017.3 mb 0.00 in0.0 mm 0.00 in0.0 mm 0.00 in0.0 mm
11:00 AM 64.0°F17.8°C 54.1°F12.3°C 70% 3.0 mph SW4.8 kmh SW 10.0 mph16.1 kmh 30.04 in1017.3 mb 0.00 in0.0 mm 0.00 in0.0 mm 0.00 in0.0 mm
10:40 AM 63.7°F17.6°C 55.2°F12.9°C 74% 2.0 mph W3.2 kmh W 9.0 mph14.5 kmh 30.04 in1017.3 mb 0.00 in0.0 mm 0.00 in0.0 mm 0.00 in0.0 mm
10:20 AM 62.4°F16.9°C 54.4°F12.4°C 75% 1.0 mph W1.6 kmh W 11.0 mph17.7 kmh 30.04 in1017.3 mb 0.00 in0.0 mm 0.00 in0.0 mm 0.00 in0.0 mm
10:00 AM 62.1°F16.7°C 54.4°F12.4°C 76% 2.0 mph WSW3.2 kmh WSW 7.0 mph11.3 kmh 30.04 in1017.3 mb 0.00 in0.0 mm 0.00 in0.0 mm 0.00 in0.0 mm
09:40 AM 61.5°F16.4°C 53.9°F12.2°C 76% 1.0 mph WSW1.6 kmh WSW 11.0 mph17.7 kmh 30.04 in1017.3 mb 0.00 in0.0 mm 0.00 in0.0 mm 0.00 in0.0 mm
09:20 AM 61.2°F16.2°C 53.9°F12.2°C 77% 1.0 mph W1.6 kmh W 6.0 mph9.7 kmh 30.03 in1016.9 mb 0.00 in0.0 mm 0.00 in0.0 mm 0.00 in0.0 mm
09:00 AM 60.6°F15.9°C 54.1°F12.3°C 79% 1.0 mph W1.6 kmh W 7.0 mph11.3 kmh 30.03 in1016.9 mb 0.00 in0.0 mm 0.00 in0.0 mm 0.00 in0.0 mm
08:40 AM 60.3°F15.7°C 53.7°F12.1°C 79% 2.0 mph W3.2 kmh W 10.0 mph16.1 kmh 30.02 in1016.6 mb 0.00 in0.0 mm 0.00 in0.0 mm 0.00 in0.0 mm
08:20 AM 60.1°F15.6°C 53.9°F12.2°C 80% Calm Calm -- 30.02 in1016.6 mb 0.00 in0.0 mm 0.00 in0.0 mm 0.00 in0.0 mm
08:00 AM 59.5°F15.3°C 53.4°F11.9°C 80% 2.0 mph WSW3.2 kmh WSW 11.0 mph17.7 kmh 30.02 in1016.6 mb 0.00 in0.0 mm 0.00 in0.0 mm 0.00 in0.0 mm
07:40 AM 59.0°F15.0°C 53.2°F11.8°C 81% Calm Calm -- 30.01 in1016.3 mb 0.00 in0.0 mm 0.00 in0.0 mm 0.00 in0.0 mm
07:20 AM 58.6°F14.8°C 52.8°F11.6°C 81% 1.0 mph SW1.6 kmh SW 7.0 mph11.3 kmh 30.00 in1015.9 mb 0.00 in0.0 mm 0.00 in0.0 mm 0.00 in0.0 mm
07:00 AM 58.6°F14.8°C 52.8°F11.6°C 81% 1.0 mph WSW1.6 kmh WSW 6.0 mph9.7 kmh 30.00 in1015.9 mb 0.00 in0.0 mm 0.00 in0.0 mm 0.00 in0.0 mm
06:40 AM 58.5°F14.7°C 53.0°F11.7°C 82% 1.0 mph SW1.6 kmh SW 6.0 mph9.7 kmh 29.99 in1015.6 mb 0.00 in0.0 mm 0.00 in0.0 mm 0.00 in0.0 mm
06:20 AM 58.3°F14.6°C 52.5°F11.4°C 81% 1.0 mph WSW1.6 kmh WSW 11.0 mph17.7 kmh 29.99 in1015.6 mb 0.00 in0.0 mm 0.00 in0.0 mm 0.00 in0.0 mm
06:00 AM 57.9°F14.4°C 52.5°F11.4°C 82% 2.0 mph SW3.2 kmh SW 9.0 mph14.5 kmh 29.98 in1015.2 mb 0.00 in0.0 mm 0.00 in0.0 mm 0.00 in0.0 mm
05:40 AM 58.3°F14.6°C 52.5°F11.4°C 81% Calm Calm 6.0 mph9.7 kmh 29.98 in1015.2 mb 0.00 in0.0 mm 0.00 in0.0 mm 0.00 in0.0 mm
05:20 AM 58.1°F14.5°C 52.6°F11.4°C 82% 1.0 mph W1.6 kmh W 9.0 mph14.5 kmh 29.98 in1015.2 mb 0.00 in0.0 mm 0.00 in0.0 mm 0.00 in0.0 mm
05:00 AM 57.7°F14.3°C 52.6°F11.4°C 83% 1.0 mph W1.6 kmh W 8.0 mph12.9 kmh 29.98 in1015.2 mb 0.00 in0.0 mm 0.00 in0.0 mm 0.00 in0.0 mm
04:40 AM 57.4°F14.1°C 52.9°F11.6°C 85% 1.0 mph WSW1.6 kmh WSW 6.0 mph9.7 kmh 29.98 in1015.2 mb 0.00 in0.0 mm 0.00 in0.0 mm 0.00 in0.0 mm
04:20 AM 57.0°F13.9°C 52.6°F11.4°C 85% 1.0 mph WSW1.6 kmh WSW 5.0 mph8.0 kmh 29.99 in1015.6 mb 0.00 in0.0 mm 0.00 in0.0 mm 0.00 in0.0 mm
04:00 AM 57.4°F14.1°C 52.9°F11.6°C 85% 2.0 mph WSW3.2 kmh WSW 14.0 mph22.5 kmh 29.98 in1015.2 mb 0.00 in0.0 mm 0.00 in0.0 mm 0.00 in0.0 mm
03:40 AM 57.4°F14.1°C 52.6°F11.4°C 84% 2.0 mph SW3.2 kmh SW 9.0 mph14.5 kmh 29.99 in1015.6 mb 0.00 in0.0 mm 0.00 in0.0 mm 0.00 in0.0 mm
03:20 AM 57.6°F14.2°C 52.8°F11.6°C 84% 2.0 mph WSW3.2 kmh WSW 10.0 mph16.1 kmh 29.98 in1015.2 mb 0.00 in0.0 mm 0.00 in0.0 mm 0.00 in0.0 mm
03:00 AM 57.7°F14.3°C 52.6°F11.4°C 83% 2.0 mph WSW3.2 kmh WSW 11.0 mph17.7 kmh 29.98 in1015.2 mb 0.00 in0.0 mm 0.00 in0.0 mm 0.00 in0.0 mm
02:40 AM 57.7°F14.3°C 52.6°F11.4°C 83% 3.0 mph WSW4.8 kmh WSW 11.0 mph17.7 kmh 29.98 in1015.2 mb 0.00 in0.0 mm 0.00 in0.0 mm 0.00 in0.0 mm
02:20 AM 57.9°F14.4°C 52.8°F11.6°C 83% 1.0 mph WSW1.6 kmh WSW 8.0 mph12.9 kmh 29.98 in1015.2 mb 0.00 in0.0 mm 0.00 in0.0 mm 0.00 in0.0 mm
02:00 AM 58.3°F14.6°C 53.1°F11.7°C 83% 2.0 mph SW3.2 kmh SW 11.0 mph17.7 kmh 29.98 in1015.2 mb 0.00 in0.0 mm 0.00 in0.0 mm 0.00 in0.0 mm
01:40 AM 58.6°F14.8°C 53.2°F11.8°C 82% 2.0 mph SW3.2 kmh SW 8.0 mph12.9 kmh 29.98 in1015.2 mb 0.00 in0.0 mm 0.00 in0.0 mm 0.00 in0.0 mm
01:20 AM 58.8°F14.9°C 53.3°F11.8°C 82% 1.0 mph SW1.6 kmh SW 9.0 mph14.5 kmh 29.98 in1015.2 mb 0.00 in0.0 mm 0.00 in0.0 mm 0.00 in0.0 mm
01:00 AM 59.2°F15.1°C 53.7°F12.1°C 82% 2.0 mph SW3.2 kmh SW 7.0 mph11.3 kmh 29.98 in1015.2 mb 0.00 in0.0 mm 0.00 in0.0 mm 0.00 in0.0 mm
12:40 AM 59.5°F15.3°C 54.0°F12.2°C 82% 3.0 mph WSW4.8 kmh WSW 12.0 mph19.3 kmh 29.97 in1014.9 mb 0.00 in0.0 mm 0.00 in0.0 mm 0.00 in0.0 mm
12:20 AM 60.3°F15.7°C 54.7°F12.6°C 82% 1.0 mph WSW1.6 kmh WSW 7.0 mph11.3 kmh 29.97 in1014.9 mb 0.00 in0.0 mm 0.00 in0.0 mm 0.00 in0.0 mm
12:00 AM 60.6°F15.9°C 54.8°F12.7°C 81% Calm Calm 7.0 mph11.3 kmh 29.96 in1014.6 mb 0.00 in0.0 mm 0.00 in0.0 mm 0.00 in0.0 mm